PST: 19:38 MST: 20:38 CST: 21:38 EST: 22:38 LDN: 03:38 UTC: 03:38
User Agent: CCBot/2.0 (https://commoncrawl.org/faq/)
IP Address: 3.94.202.172
Hostname: ec2-3-94-202-172.compute-1.amazonaws.com

METAR:
KBFI 220253Z 00000KT 10SM BKN250 10/00 A3013 RMK AO2 SLP203 T01000000 55002
KBFI 220153Z 18003KT 10SM BKN250 11/00 A3012 RMK AO2 SLP198 T01110000
KBFI 220053Z VRB03KT 10SM SCT250 12/M01 A3012 RMK AO2 SLP201 T01171006
KBFI 212353Z 19005KT 10SM SCT250 13/M01 A3014 RMK AO2 SLP205 T01281011 10133 20067 56016

TAF:
KBFI 212322Z 2200/2224 18006KT P6SM BKN250
FM 220300 18003KT P6SM SCT050 BKN120 BKN200
FM 221000 16006KT P6SM FEW015 BKN050
FM 221500 18006KT P6SM BKN015 BKN050

KBFI 211723Z 2118/2218 21003KT P6SM BKN250
FM 220300 18003KT P6SM SCT050 BKN120 BKN200
FM 221000 16006KT P6SM FEW015 BKN050
FM 221500 18006KT P6SM BKN015 BKN050

KBFI 211120Z 2112/2212 VRB03KT P6SM SCT250
FM 211800 16006KT P6SM BKN250
FM 220300 18006KT P6SM SCT050 BKN120 BKN200
FM 220900 16010KT P6SM BKN015 BKN050

KBFI 210520Z 2106/2206 VRB03KT P6SM SKC
FM 212100 22004KT P6SM FEW250

KBFI 210252Z 2103/2124 VRB03KT P6SM SKC
FM 211800 17003KT P6SM FEW250
FM 212100 23004KT P6SM FEW250

KBFI 202341Z 2100/2124 30005KT P6SM SCT250
FM 210300 VRB03KT P6SM SKC